createdAt,value
2023-02-09T00:04:35.039Z,15.63
2023-02-09T00:09:37.141Z,10.77
2023-02-09T00:14:38.955Z,7.82
2023-02-09T00:19:40.897Z,7.53
2023-02-09T00:24:42.747Z,15.65
2023-02-09T00:29:44.665Z,12.50
2023-02-09T00:34:46.440Z,9.05
2023-02-09T00:39:48.257Z,9.95
2023-02-09T00:44:50.176Z,10.27
2023-02-09T00:49:52.034Z,8.85
2023-02-09T00:54:53.816Z,10.27
2023-02-09T00:59:55.826Z,9.18
2023-02-09T01:04:57.673Z,7.97
2023-02-09T01:10:00.148Z,9.18
2023-02-09T01:15:02.457Z,12.85
2023-02-09T01:20:05.950Z,8.68
2023-02-09T01:25:09.229Z,10.60
2023-02-09T01:30:11.647Z,10.73
2023-02-09T01:35:13.664Z,9.85
2023-02-09T01:40:15.686Z,8.95
2023-02-09T01:45:23.611Z,9.43
2023-02-09T01:50:27.248Z,11.90
2023-02-09T01:55:31.980Z,9.73
2023-02-09T02:00:33.951Z,11.60
2023-02-09T02:05:39.484Z,7.75
2023-02-09T02:10:41.608Z,10.30
2023-02-09T02:16:08.584Z,8.35
2023-02-09T02:21:47.719Z,11.90
2023-02-09T02:26:58.197Z,12.38
2023-02-09T02:37:11.577Z,9.25
2023-02-09T02:42:40.774Z,6.82
2023-02-09T02:47:49.556Z,17.48
2023-02-09T02:52:56.661Z,13.85
2023-02-09T02:58:09.222Z,10.48
2023-02-09T03:03:21.838Z,10.18
2023-02-09T03:08:23.602Z,10.70
2023-02-09T03:13:40.526Z,11.95
2023-02-09T03:19:06.455Z,10.02
2023-02-09T03:24:14.370Z,8.75
2023-02-09T03:29:18.577Z,13.80
2023-02-09T03:34:20.557Z,10.52
2023-02-09T03:39:22.492Z,9.38
2023-02-09T03:44:27.155Z,12.27
2023-02-09T03:49:34.790Z,12.73
2023-02-09T03:54:37.189Z,14.50
2023-02-09T03:59:39.821Z,11.25
2023-02-09T04:04:41.609Z,13.80
2023-02-09T04:09:43.557Z,13.40
2023-02-09T04:14:45.311Z,8.98
2023-02-09T04:19:47.127Z,15.48
2023-02-09T04:24:48.877Z,13.10
2023-02-09T04:29:51.783Z,15.25
2023-02-09T04:34:53.614Z,16.45
2023-02-09T04:39:55.414Z,12.70
2023-02-09T04:44:57.166Z,16.38
2023-02-09T04:49:58.952Z,12.82
2023-02-09T04:55:00.751Z,14.45
2023-02-09T05:00:02.574Z,15.63
2023-02-09T05:05:04.649Z,16.45
2023-02-09T05:10:06.899Z,15.40
2023-02-09T05:15:09.288Z,16.70
2023-02-09T05:20:11.466Z,18.50
2023-02-09T05:25:16.141Z,14.18
2023-02-09T05:30:18.134Z,13.75
2023-02-09T05:35:20.365Z,15.50
2023-02-09T05:40:22.270Z,17.95
2023-02-09T05:45:24.007Z,14.60
2023-02-09T05:50:25.805Z,14.80
2023-02-09T05:55:27.821Z,17.02
2023-02-09T06:00:29.983Z,16.55
2023-02-09T06:05:31.944Z,20.70
2023-02-09T06:10:33.681Z,20.50
2023-02-09T06:15:35.702Z,17.52
2023-02-09T06:20:37.585Z,20.67
2023-02-09T06:25:40.616Z,19.38
2023-02-09T06:30:42.440Z,18.67
2023-02-09T06:35:44.830Z,21.88
2023-02-09T06:40:47.561Z,18.42
2023-02-09T06:45:49.749Z,17.48
2023-02-09T06:50:51.574Z,20.02
2023-02-09T06:55:58.931Z,16.45
2023-02-09T07:01:04.736Z,16.88
2023-02-09T07:06:12.396Z,21.15
2023-02-09T07:11:18.851Z,17.50
2023-02-09T07:16:20.765Z,15.75
2023-02-09T07:21:22.681Z,17.80
2023-02-09T07:26:24.528Z,20.13
2023-02-09T07:31:27.466Z,24.55
2023-02-09T07:36:29.432Z,16.00
2023-02-09T07:41:31.422Z,22.65
2023-02-09T07:46:33.335Z,20.55
2023-02-09T07:51:35.116Z,20.85
2023-02-09T07:56:36.895Z,25.70
2023-02-09T08:01:38.748Z,20.40
2023-02-09T08:06:45.153Z,20.88
2023-02-09T08:11:53.750Z,17.02
2023-02-09T08:17:18.576Z,23.00
2023-02-09T08:22:22.687Z,22.33
2023-02-09T08:27:24.586Z,22.13
2023-02-09T08:32:26.446Z,16.45
2023-02-09T08:37:28.263Z,19.27
2023-02-09T08:42:30.080Z,21.55
2023-02-09T08:47:31.855Z,19.70
2023-02-09T08:52:33.681Z,20.08
2023-02-09T08:57:43.859Z,20.05
2023-02-09T09:02:45.959Z,15.65
2023-02-09T09:07:48.330Z,19.23
2023-02-09T09:12:51.323Z,19.85
2023-02-09T09:17:53.132Z,17.58
2023-02-09T09:22:59.378Z,19.00
2023-02-09T09:28:01.703Z,19.75
2023-02-09T09:33:03.828Z,15.90
2023-02-09T09:38:05.715Z,18.85
2023-02-09T09:43:15.005Z,17.80
2023-02-09T09:48:24.051Z,23.88
2023-02-09T09:53:38.751Z,19.55
2023-02-09T09:58:43.454Z,19.02
2023-02-09T10:03:45.375Z,22.15
2023-02-09T10:08:59.878Z,17.65
2023-02-09T10:14:01.648Z,18.67
2023-02-09T10:19:22.882Z,18.30
2023-02-09T10:24:33.353Z,17.42
2023-02-09T10:29:35.933Z,16.85
2023-02-09T10:34:37.646Z,17.33
2023-02-09T10:39:40.021Z,15.90
2023-02-09T10:44:49.400Z,18.13
2023-02-09T10:49:55.068Z,19.45
2023-02-09T10:55:01.449Z,19.05
2023-02-09T11:00:15.278Z,20.40
2023-02-09T11:05:23.264Z,18.83
2023-02-09T11:10:29.038Z,18.38
2023-02-09T11:15:40.377Z,19.98
2023-02-09T11:20:52.712Z,25.02
2023-02-09T11:26:31.075Z,21.05
2023-02-09T11:31:50.027Z,25.65
2023-02-09T11:37:19.424Z,23.50
2023-02-09T11:42:46.866Z,21.95
2023-02-09T11:48:12.335Z,20.17
2023-02-09T11:53:24.858Z,25.23
2023-02-09T11:59:18.844Z,20.30
2023-02-09T12:04:44.001Z,24.50
2023-02-09T12:09:52.029Z,25.30
2023-02-09T12:15:18.694Z,24.38
2023-02-09T12:20:40.698Z,24.17
2023-02-09T12:25:54.778Z,26.55
2023-02-09T12:30:59.330Z,25.77
2023-02-09T12:36:09.921Z,27.83
2023-02-09T12:41:15.263Z,24.15
2023-02-09T12:46:45.141Z,24.25
2023-02-09T12:51:53.271Z,30.40
2023-02-09T12:56:55.485Z,26.60
2023-02-09T13:02:06.534Z,27.52
2023-02-09T13:07:32.215Z,35.15
2023-02-09T13:12:39.153Z,30.30
2023-02-09T13:18:06.970Z,28.50
2023-02-09T13:23:26.455Z,33.78
2023-02-09T13:28:28.495Z,27.83
2023-02-09T13:33:44.163Z,30.05
2023-02-09T13:38:46.306Z,30.88
2023-02-09T13:43:48.497Z,30.25
2023-02-09T13:48:50.274Z,33.20
2023-02-09T13:54:00.348Z,29.20
2023-02-09T13:59:02.349Z,22.07
2023-02-09T14:04:14.669Z,29.75
2023-02-09T14:09:29.786Z,39.90
2023-02-09T14:14:56.131Z,34.53
2023-02-09T14:19:59.664Z,32.15
2023-02-09T14:25:15.050Z,36.97
2023-02-09T14:30:24.381Z,38.00
2023-02-09T14:35:30.471Z,33.95
2023-02-09T14:40:34.689Z,35.90
2023-02-09T14:45:48.519Z,36.90
2023-02-09T14:51:02.402Z,38.05
2023-02-09T14:56:04.426Z,37.38
2023-02-09T15:01:06.262Z,35.70
2023-02-09T15:06:08.224Z,34.38
2023-02-09T15:11:42.247Z,37.08
2023-02-09T15:16:44.308Z,43.00
2023-02-09T15:21:52.680Z,40.13
2023-02-09T15:27:03.936Z,36.58
2023-02-09T15:32:16.668Z,48.95
2023-02-09T15:37:28.466Z,34.33
2023-02-09T15:42:48.895Z,34.90
2023-02-09T15:47:52.815Z,26.25
2023-02-09T15:52:55.547Z,35.25
2023-02-09T15:57:57.946Z,35.78
2023-02-09T16:03:01.591Z,37.00
2023-02-09T16:08:03.580Z,36.13
2023-02-09T16:13:09.803Z,32.47
2023-02-09T16:18:12.125Z,39.58
2023-02-09T16:23:33.137Z,36.53
2023-02-09T16:28:34.931Z,34.28
2023-02-09T16:33:38.774Z,35.47
2023-02-09T16:38:40.577Z,32.30
2023-02-09T16:43:42.456Z,42.03
2023-02-09T16:48:46.489Z,37.05
2023-02-09T16:53:51.706Z,41.72
2023-02-09T16:58:53.536Z,34.42
2023-02-09T17:03:56.535Z,34.75
2023-02-09T17:08:58.790Z,36.25
2023-02-09T17:14:00.553Z,46.58
2023-02-09T17:19:06.262Z,34.55
2023-02-09T17:24:15.793Z,35.83
2023-02-09T17:29:20.183Z,36.63
2023-02-09T17:34:27.146Z,42.00
2023-02-09T17:39:30.777Z,35.53
2023-02-09T17:44:45.442Z,41.38
2023-02-09T17:49:48.182Z,42.80
2023-02-09T17:54:50.930Z,42.90
2023-02-09T17:59:52.792Z,44.85
2023-02-09T18:04:54.588Z,39.17
2023-02-09T18:09:56.658Z,34.25
2023-02-09T18:14:59.282Z,42.33
2023-02-09T18:20:01.200Z,37.35
2023-02-09T18:25:03.144Z,42.72
2023-02-09T18:30:05.452Z,42.42
2023-02-09T18:35:08.052Z,44.35
2023-02-09T18:40:10.301Z,47.95
2023-02-09T18:45:14.112Z,38.90
2023-02-09T18:50:23.386Z,38.97
2023-02-09T18:55:29.327Z,41.55
2023-02-09T19:00:32.211Z,42.92
2023-02-09T19:05:35.705Z,39.85
2023-02-09T19:10:37.896Z,41.88
2023-02-09T19:15:40.390Z,39.85
2023-02-09T19:20:42.267Z,42.13
2023-02-09T19:25:44.679Z,45.22
2023-02-09T19:30:46.764Z,42.40
2023-02-09T19:35:59.759Z,44.38
2023-02-09T19:41:12.289Z,42.30
2023-02-09T19:46:14.292Z,44.35
2023-02-09T19:51:16.161Z,42.67
2023-02-09T19:56:20.790Z,44.75
2023-02-09T20:01:22.956Z,48.47
2023-02-09T20:06:25.332Z,44.28
2023-02-09T20:11:28.018Z,45.95
2023-02-09T20:16:29.860Z,45.97
2023-02-09T20:21:31.680Z,40.95
2023-02-09T20:26:33.576Z,43.45
2023-02-09T20:31:37.800Z,44.42
2023-02-09T20:36:40.851Z,41.65
2023-02-09T20:42:06.175Z,48.08
2023-02-09T20:47:08.220Z,47.13
2023-02-09T20:52:10.094Z,44.72
2023-02-09T20:57:11.885Z,49.05
2023-02-09T21:02:16.058Z,44.88
2023-02-09T21:07:20.177Z,50.08
2023-02-09T21:12:22.146Z,42.70
2023-02-09T21:17:24.137Z,43.90
2023-02-09T21:22:25.927Z,45.78
2023-02-09T21:27:27.684Z,43.25
2023-02-09T21:32:29.474Z,39.72
2023-02-09T21:37:32.217Z,45.40
2023-02-09T21:42:35.583Z,43.97
2023-02-09T21:47:39.382Z,52.83
2023-02-09T21:52:41.317Z,48.63
2023-02-09T21:57:43.342Z,47.45
2023-02-09T22:02:45.675Z,48.30
2023-02-09T22:07:48.435Z,56.53
2023-02-09T22:12:50.322Z,49.05
2023-02-09T22:17:52.100Z,49.10
2023-02-09T22:22:53.836Z,44.58
2023-02-09T22:27:55.645Z,50.05
2023-02-09T22:32:57.664Z,43.70
2023-02-09T22:37:59.482Z,51.33
2023-02-09T22:43:01.242Z,49.13
2023-02-09T22:48:03.079Z,42.28
2023-02-09T22:53:05.155Z,46.88
2023-02-09T22:58:07.113Z,44.38
2023-02-09T23:03:08.927Z,47.28
2023-02-09T23:08:13.844Z,49.65
2023-02-09T23:13:15.609Z,54.38
2023-02-09T23:18:17.411Z,48.88
2023-02-09T23:23:19.187Z,51.60
2023-02-09T23:28:21.081Z,48.83
2023-02-09T23:33:23.255Z,50.70
2023-02-09T23:38:25.043Z,43.28
2023-02-09T23:43:26.873Z,48.28
2023-02-09T23:48:28.927Z,52.38
2023-02-09T23:53:32.187Z,50.53
2023-02-09T23:58:36.349Z,55.40
